Airfield :
LOGIN :

Register | Disclaimer

   EN    FR    IT 

 










Legend :    VFR   Marginal VFR   IFR   Intensive IFR   Very Intensive IFR
Visi :
Ceiling :
>= 8 km
>= 3000ft
5 to 8 km
1000 to 3000 ft
1500m to 5 km
500 to 1000 ft
800 to 1500m
200 to 500 ft
< 800m
< 200 ft
Symbols :   Thunderstorms  Fog  Heavy snow  Heavy precipitations  Wind > 20 kt
SIGMETs :     Misc.  Thunderstorms  Icing  Turbulence  Mountain Waves  Volcanic Ashes






- Airport Elevation : 2776 ft
- IATA code : VLL


LEVD - Valladolid

CURRENT METAR :
  • 280000Z AUTO 09008KT 060V120 CAVOK 14/08 Q1020

EXPIRED METARs :
  • 272330Z AUTO 09008KT CAVOK 14/08 Q1021
  • 272300Z AUTO 07008KT 020V100 CAVOK 15/07 Q1021
  • 272230Z AUTO 12004KT 070V170 CAVOK 12/06 Q1021
  • 272200Z AUTO 05007KT CAVOK 14/06 Q1021
  • 272130Z AUTO 05009KT CAVOK 14/06 Q1021

TAF TAF LEVD
Valid from the 27 at 21:00 until the 28 at 21:00 UTC


272000Z 2721/2821 06010KT CAVOK TX30/2815Z TN09/2806Z
BECMG 2802/2804 VRB05KT



MET'MAP, your aeronautical weather chart ! - Copyright ORBIFLY December 2007 - Disclaimer

ORBIFLY MET'MAP TEAM :

Programming & Development : Alexandra Zaïnal
Original concept : Baudouin d'Aumeries
Technical & hardware support : Manuel Goepfert
Assistance : Marc-Olivier Méhu

Contact : metmap@orbifly.com




SOURCES & CREDITS :

   NOAA